sensor_id;sensor_type;location;lat;lon;timestamp;temperature;humidity
11656;DHT22;5884;43.618;1.438;2023-03-14T05:47:42;10.30;99.90
11656;DHT22;5884;43.618;1.438;2023-03-14T05:50:11;10.40;99.90
11656;DHT22;5884;43.618;1.438;2023-03-14T05:52:38;10.40;99.90
11656;DHT22;5884;43.618;1.438;2023-03-14T05:55:06;10.40;99.90
11656;DHT22;5884;43.618;1.438;2023-03-14T05:57:34;10.40;99.90
11656;DHT22;5884;43.618;1.438;2023-03-14T06:00:01;10.40;99.90
11656;DHT22;5884;43.618;1.438;2023-03-14T06:02:31;10.40;99.90
11656;DHT22;5884;43.618;1.438;2023-03-14T06:04:58;10.20;99.90
11656;DHT22;5884;43.618;1.438;2023-03-14T06:07:25;10.10;99.90
11656;DHT22;5884;43.618;1.438;2023-03-14T06:09:52;10.00;99.90
11656;DHT22;5884;43.618;1.438;2023-03-14T06:12:19;10.00;99.90
11656;DHT22;5884;43.618;1.438;2023-03-14T06:14:47;10.00;99.90
11656;DHT22;5884;43.618;1.438;2023-03-14T06:17:15;10.00;99.90
11656;DHT22;5884;43.618;1.438;2023-03-14T06:19:43;10.00;99.90
11656;DHT22;5884;43.618;1.438;2023-03-14T06:22:11;9.90;99.90
11656;DHT22;5884;43.618;1.438;2023-03-14T06:24:39;9.90;99.90
11656;DHT22;5884;43.618;1.438;2023-03-14T06:27:06;9.90;99.90
11656;DHT22;5884;43.618;1.438;2023-03-14T06:29:33;9.90;99.90
11656;DHT22;5884;43.618;1.438;2023-03-14T06:32:01;9.90;99.90
11656;DHT22;5884;43.618;1.438;2023-03-14T06:34:28;9.90;99.90
11656;DHT22;5884;43.618;1.438;2023-03-14T06:36:56;10.00;99.90
11656;DHT22;5884;43.618;1.438;2023-03-14T06:39:24;9.90;99.90
11656;DHT22;5884;43.618;1.438;2023-03-14T06:41:51;10.00;99.90
11656;DHT22;5884;43.618;1.438;2023-03-14T06:44:18;10.00;99.90
11656;DHT22;5884;43.618;1.438;2023-03-14T06:46:46;10.00;99.90
11656;DHT22;5884;43.618;1.438;2023-03-14T06:49:13;10.00;99.90
11656;DHT22;5884;43.618;1.438;2023-03-14T06:51:40;9.90;99.90
11656;DHT22;5884;43.618;1.438;2023-03-14T06:54:09;10.00;99.90
11656;DHT22;5884;43.618;1.438;2023-03-14T06:56:36;10.00;99.90
11656;DHT22;5884;43.618;1.438;2023-03-14T06:59:03;10.00;99.90
11656;DHT22;5884;43.618;1.438;2023-03-14T07:01:31;10.00;99.90
11656;DHT22;5884;43.618;1.438;2023-03-14T07:04:00;10.00;99.90
11656;DHT22;5884;43.618;1.438;2023-03-14T07:06:27;9.90;99.90
11656;DHT22;5884;43.618;1.438;2023-03-14T07:08:55;9.90;99.90
11656;DHT22;5884;43.618;1.438;2023-03-14T07:11:24;9.90;99.90
11656;DHT22;5884;43.618;1.438;2023-03-14T07:13:52;9.60;99.90
11656;DHT22;5884;43.618;1.438;2023-03-14T07:16:19;9.80;99.90
11656;DHT22;5884;43.618;1.438;2023-03-14T07:18:46;9.80;99.90
11656;DHT22;5884;43.618;1.438;2023-03-14T07:21:14;9.80;99.90
11656;DHT22;5884;43.618;1.438;2023-03-14T07:23:42;9.80;99.90
11656;DHT22;5884;43.618;1.438;2023-03-14T07:26:09;9.80;99.90
11656;DHT22;5884;43.618;1.438;2023-03-14T07:28:37;9.90;99.90
11656;DHT22;5884;43.618;1.438;2023-03-14T07:31:05;10.00;99.90
11656;DHT22;5884;43.618;1.438;2023-03-14T07:33:33;9.90;99.90
11656;DHT22;5884;43.618;1.438;2023-03-14T07:36:01;10.00;99.90
11656;DHT22;5884;43.618;1.438;2023-03-14T07:38:29;10.00;99.90
11656;DHT22;5884;43.618;1.438;2023-03-14T07:40:59;10.10;99.90
11656;DHT22;5884;43.618;1.438;2023-03-14T07:43:27;10.10;99.90
11656;DHT22;5884;43.618;1.438;2023-03-14T07:45:55;10.10;99.90
11656;DHT22;5884;43.618;1.438;2023-03-14T07:48:22;10.20;99.90
11656;DHT22;5884;43.618;1.438;2023-03-14T07:50:53;10.30;99.90
11656;DHT22;5884;43.618;1.438;2023-03-14T07:53:21;10.40;99.90
11656;DHT22;5884;43.618;1.438;2023-03-14T07:55:51;10.60;99.90
11656;DHT22;5884;43.618;1.438;2023-03-14T07:58:19;10.70;99.90
11656;DHT22;5884;43.618;1.438;2023-03-14T08:00:47;10.80;99.90
11656;DHT22;5884;43.618;1.438;2023-03-14T08:03:16;10.90;99.90
11656;DHT22;5884;43.618;1.438;2023-03-14T08:05:47;10.80;99.90
11656;DHT22;5884;43.618;1.438;2023-03-14T08:08:15;10.80;99.90
11656;DHT22;5884;43.618;1.438;2023-03-14T08:10:42;10.90;99.90
11656;DHT22;5884;43.618;1.438;2023-03-14T08:13:10;10.80;99.90
11656;DHT22;5884;43.618;1.438;2023-03-14T08:15:37;10.90;99.90
11656;DHT22;5884;43.618;1.438;2023-03-14T08:18:05;11.10;99.90
11656;DHT22;5884;43.618;1.438;2023-03-14T08:20:35;11.20;99.90
11656;DHT22;5884;43.618;1.438;2023-03-14T08:23:03;11.30;99.90
11656;DHT22;5884;43.618;1.438;2023-03-14T08:25:30;11.40;99.90
11656;DHT22;5884;43.618;1.438;2023-03-14T08:27:57;11.50;99.90
11656;DHT22;5884;43.618;1.438;2023-03-14T08:30:25;11.50;99.90
11656;DHT22;5884;43.618;1.438;2023-03-14T08:32:52;11.80;99.90
11656;DHT22;5884;43.618;1.438;2023-03-14T08:35:20;12.30;99.90
11656;DHT22;5884;43.618;1.438;2023-03-14T08:37:48;12.30;99.90
11656;DHT22;5884;43.618;1.438;2023-03-14T08:40:17;12.20;99.90
11656;DHT22;5884;43.618;1.438;2023-03-14T08:42:45;12.10;99.90
11656;DHT22;5884;43.618;1.438;2023-03-14T08:45:14;12.00;99.90
11656;DHT22;5884;43.618;1.438;2023-03-14T08:47:43;12.00;99.90
11656;DHT22;5884;43.618;1.438;2023-03-14T08:50:11;11.90;99.90
11656;DHT22;5884;43.618;1.438;2023-03-14T08:52:39;11.80;99.90
11656;DHT22;5884;43.618;1.438;2023-03-14T08:55:09;11.70;99.90
11656;DHT22;5884;43.618;1.438;2023-03-14T08:57:36;11.70;99.90
11656;DHT22;5884;43.618;1.438;2023-03-14T09:00:04;11.60;99.90
11656;DHT22;5884;43.618;1.438;2023-03-14T09:02:36;11.60;99.90
11656;DHT22;5884;43.618;1.438;2023-03-14T09:05:04;11.70;99.90
11656;DHT22;5884;43.618;1.438;2023-03-14T09:07:32;11.70;99.90
11656;DHT22;5884;43.618;1.438;2023-03-14T09:09:59;11.60;99.90
11656;DHT22;5884;43.618;1.438;2023-03-14T09:12:27;11.60;99.90
11656;DHT22;5884;43.618;1.438;2023-03-14T09:14:55;11.60;99.90
11656;DHT22;5884;43.618;1.438;2023-03-14T09:17:22;11.60;99.90
11656;DHT22;5884;43.618;1.438;2023-03-14T09:19:49;10.20;99.90
11656;DHT22;5884;43.618;1.438;2023-03-14T09:22:16;9.30;99.90
11656;DHT22;5884;43.618;1.438;2023-03-14T09:24:44;9.00;99.90
11656;DHT22;5884;43.618;1.438;2023-03-14T09:27:11;8.90;99.90
11656;DHT22;5884;43.618;1.438;2023-03-14T09:29:40;8.80;99.90
11656;DHT22;5884;43.618;1.438;2023-03-14T09:32:07;8.80;99.90
11656;DHT22;5884;43.618;1.438;2023-03-14T09:34:34;8.80;99.90
11656;DHT22;5884;43.618;1.438;2023-03-14T09:37:01;8.80;99.90
11656;DHT22;5884;43.618;1.438;2023-03-14T09:39:29;8.80;99.90
11656;DHT22;5884;43.618;1.438;2023-03-14T09:41:58;9.00;99.90
11656;DHT22;5884;43.618;1.438;2023-03-14T09:44:31;9.20;99.90
11656;DHT22;5884;43.618;1.438;2023-03-14T09:47:05;9.40;99.90
11656;DHT22;5884;43.618;1.438;2023-03-14T09:49:36;9.80;99.90
11656;DHT22;5884;43.618;1.438;2023-03-14T09:52:11;10.10;99.90
11656;DHT22;5884;43.618;1.438;2023-03-14T09:54:43;10.30;99.90
11656;DHT22;5884;43.618;1.438;2023-03-14T09:57:14;10.70;99.90
11656;DHT22;5884;43.618;1.438;2023-03-14T09:59:44;11.00;99.90
11656;DHT22;5884;43.618;1.438;2023-03-14T10:02:16;11.00;99.90
11656;DHT22;5884;43.618;1.438;2023-03-14T10:04:46;11.00;99.90
11656;DHT22;5884;43.618;1.438;2023-03-14T10:07:16;11.00;99.90
11656;DHT22;5884;43.618;1.438;2023-03-14T10:09:47;11.00;99.90
11656;DHT22;5884;43.618;1.438;2023-03-14T10:12:16;11.00;99.90
11656;DHT22;5884;43.618;1.438;2023-03-14T10:14:49;11.00;99.90
11656;DHT22;5884;43.618;1.438;2023-03-14T10:17:20;11.10;99.90
11656;DHT22;5884;43.618;1.438;2023-03-14T10:19:54;11.30;99.90
11656;DHT22;5884;43.618;1.438;2023-03-14T10:22:24;11.50;99.90
11656;DHT22;5884;43.618;1.438;2023-03-14T10:24:55;11.60;99.90
11656;DHT22;5884;43.618;1.438;2023-03-14T10:27:29;11.60;99.90
11656;DHT22;5884;43.618;1.438;2023-03-14T10:29:58;11.50;99.90
11656;DHT22;5884;43.618;1.438;2023-03-14T10:32:33;11.40;99.90
11656;DHT22;5884;43.618;1.438;2023-03-14T10:35:23;11.70;99.90
11656;DHT22;5884;43.618;1.438;2023-03-14T10:37:53;11.70;99.90
11656;DHT22;5884;43.618;1.438;2023-03-14T10:40:26;11.70;99.90
11656;DHT22;5884;43.618;1.438;2023-03-14T10:42:55;11.30;99.90
11656;DHT22;5884;43.618;1.438;2023-03-14T10:45:36;11.10;99.90
11656;DHT22;5884;43.618;1.438;2023-03-14T10:48:24;11.10;99.90
11656;DHT22;5884;43.618;1.438;2023-03-14T10:50:57;11.10;99.90
11656;DHT22;5884;43.618;1.438;2023-03-14T10:53:34;11.10;99.90
11656;DHT22;5884;43.618;1.438;2023-03-14T10:56:07;11.40;99.90
11656;DHT22;5884;43.618;1.438;2023-03-14T10:58:40;11.40;99.90
11656;DHT22;5884;43.618;1.438;2023-03-14T11:01:28;11.10;99.90
11656;DHT22;5884;43.618;1.438;2023-03-14T11:04:13;10.30;99.90
11656;DHT22;5884;43.618;1.438;2023-03-14T11:06:46;9.70;99.90
11656;DHT22;5884;43.618;1.438;2023-03-14T11:09:22;9.50;99.90
11656;DHT22;5884;43.618;1.438;2023-03-14T11:11:59;9.30;99.90
11656;DHT22;5884;43.618;1.438;2023-03-14T11:14:36;9.50;99.90
11656;DHT22;5884;43.618;1.438;2023-03-14T11:17:11;9.90;99.90
11656;DHT22;5884;43.618;1.438;2023-03-14T11:19:52;10.20;99.90
11656;DHT22;5884;43.618;1.438;2023-03-14T11:22:29;10.50;99.90
11656;DHT22;5884;43.618;1.438;2023-03-14T11:25:09;10.80;99.90
11656;DHT22;5884;43.618;1.438;2023-03-14T11:27:43;11.10;99.90
11656;DHT22;5884;43.618;1.438;2023-03-14T11:30:19;11.20;99.90
11656;DHT22;5884;43.618;1.438;2023-03-14T11:32:54;11.30;99.90
11656;DHT22;5884;43.618;1.438;2023-03-14T11:35:30;11.10;99.90
11656;DHT22;5884;43.618;1.438;2023-03-14T11:38:04;10.90;99.90
11656;DHT22;5884;43.618;1.438;2023-03-14T11:40:37;10.70;99.90
11656;DHT22;5884;43.618;1.438;2023-03-14T11:43:11;10.70;99.90
11656;DHT22;5884;43.618;1.438;2023-03-14T11:45:42;10.80;99.90
11656;DHT22;5884;43.618;1.438;2023-03-14T11:48:23;10.70;99.90
11656;DHT22;5884;43.618;1.438;2023-03-14T11:51:00;11.10;99.90
11656;DHT22;5884;43.618;1.438;2023-03-14T11:53:42;11.20;99.90
11656;DHT22;5884;43.618;1.438;2023-03-14T11:56:18;11.30;99.90
11656;DHT22;5884;43.618;1.438;2023-03-14T11:58:56;11.40;99.90
11656;DHT22;5884;43.618;1.438;2023-03-14T12:01:33;11.40;99.90
11656;DHT22;5884;43.618;1.438;2023-03-14T12:04:09;11.40;99.90
11656;DHT22;5884;43.618;1.438;2023-03-14T12:06:46;11.40;99.90
11656;DHT22;5884;43.618;1.438;2023-03-14T12:09:15;11.40;99.90
11656;DHT22;5884;43.618;1.438;2023-03-14T12:11:45;11.40;99.90
11656;DHT22;5884;43.618;1.438;2023-03-14T12:14:23;11.30;99.90
11656;DHT22;5884;43.618;1.438;2023-03-14T12:16:54;11.40;99.90
11656;DHT22;5884;43.618;1.438;2023-03-14T12:19:31;11.60;99.90
11656;DHT22;5884;43.618;1.438;2023-03-14T12:22:26;12.00;99.90
11656;DHT22;5884;43.618;1.438;2023-03-14T12:24:57;12.10;99.90
11656;DHT22;5884;43.618;1.438;2023-03-14T12:30:34;12.10;99.90
11656;DHT22;5884;43.618;1.438;2023-03-14T12:33:32;12.00;99.90
11656;DHT22;5884;43.618;1.438;2023-03-14T12:36:02;11.80;99.90
11656;DHT22;5884;43.618;1.438;2023-03-14T12:38:51;11.70;99.90
11656;DHT22;5884;43.618;1.438;2023-03-14T12:41:26;11.70;99.90
11656;DHT22;5884;43.618;1.438;2023-03-14T12:43:56;12.10;99.90
11656;DHT22;5884;43.618;1.438;2023-03-14T12:46:25;12.10;99.90
11656;DHT22;5884;43.618;1.438;2023-03-14T12:49:03;12.10;99.90
11656;DHT22;5884;43.618;1.438;2023-03-14T12:51:35;12.30;99.90
11656;DHT22;5884;43.618;1.438;2023-03-14T12:54:19;12.30;99.90
11656;DHT22;5884;43.618;1.438;2023-03-14T12:57:06;12.60;99.90
11656;DHT22;5884;43.618;1.438;2023-03-14T12:59:47;12.70;99.90
11656;DHT22;5884;43.618;1.438;2023-03-14T13:02:26;12.70;99.90
11656;DHT22;5884;43.618;1.438;2023-03-14T13:05:04;12.70;99.90
11656;DHT22;5884;43.618;1.438;2023-03-14T13:08:04;12.60;99.90
11656;DHT22;5884;43.618;1.438;2023-03-14T13:10:42;12.40;99.90
11656;DHT22;5884;43.618;1.438;2023-03-14T13:13:19;12.50;99.90
11656;DHT22;5884;43.618;1.438;2023-03-14T13:15:48;12.70;99.90
11656;DHT22;5884;43.618;1.438;2023-03-14T13:18:23;13.00;99.90
11656;DHT22;5884;43.618;1.438;2023-03-14T13:20:56;13.10;99.90
11656;DHT22;5884;43.618;1.438;2023-03-14T13:23:29;13.40;99.90
11656;DHT22;5884;43.618;1.438;2023-03-14T13:25:59;13.40;99.90
11656;DHT22;5884;43.618;1.438;2023-03-14T13:28:27;13.60;99.90
11656;DHT22;5884;43.618;1.438;2023-03-14T13:30:57;13.70;99.90
11656;DHT22;5884;43.618;1.438;2023-03-14T13:33:25;13.90;99.90
11656;DHT22;5884;43.618;1.438;2023-03-14T13:35:56;13.90;99.90
11656;DHT22;5884;43.618;1.438;2023-03-14T13:38:26;13.60;99.90
11656;DHT22;5884;43.618;1.438;2023-03-14T13:40:57;13.20;99.90
11656;DHT22;5884;43.618;1.438;2023-03-14T13:43:28;12.90;99.90
11656;DHT22;5884;43.618;1.438;2023-03-14T13:46:03;12.40;99.90
11656;DHT22;5884;43.618;1.438;2023-03-14T13:48:33;11.30;99.90
11656;DHT22;5884;43.618;1.438;2023-03-14T13:51:04;10.50;99.90
11656;DHT22;5884;43.618;1.438;2023-03-14T13:53:42;10.20;99.90
11656;DHT22;5884;43.618;1.438;2023-03-14T13:56:10;10.10;99.90
11656;DHT22;5884;43.618;1.438;2023-03-14T13:58:39;10.00;99.90
11656;DHT22;5884;43.618;1.438;2023-03-14T14:01:13;10.20;99.90
11656;DHT22;5884;43.618;1.438;2023-03-14T14:03:44;10.40;99.90
11656;DHT22;5884;43.618;1.438;2023-03-14T14:06:25;10.50;99.90
11656;DHT22;5884;43.618;1.438;2023-03-14T14:08:56;10.40;99.90
11656;DHT22;5884;43.618;1.438;2023-03-14T14:11:37;10.30;99.90
11656;DHT22;5884;43.618;1.438;2023-03-14T14:14:12;10.70;99.90
11656;DHT22;5884;43.618;1.438;2023-03-14T14:16:44;11.20;99.90
11656;DHT22;5884;43.618;1.438;2023-03-14T14:19:14;11.40;99.90
11656;DHT22;5884;43.618;1.438;2023-03-14T14:21:42;11.50;99.90
11656;DHT22;5884;43.618;1.438;2023-03-14T14:24:13;11.50;99.90
11656;DHT22;5884;43.618;1.438;2023-03-14T14:26:47;11.60;99.90
11656;DHT22;5884;43.618;1.438;2023-03-14T14:29:26;11.80;99.90
11656;DHT22;5884;43.618;1.438;2023-03-14T14:32:02;11.70;99.90
11656;DHT22;5884;43.618;1.438;2023-03-14T14:34:38;11.80;99.90
11656;DHT22;5884;43.618;1.438;2023-03-14T14:37:18;11.60;99.90
11656;DHT22;5884;43.618;1.438;2023-03-14T14:39:48;11.40;99.90
11656;DHT22;5884;43.618;1.438;2023-03-14T14:42:20;11.20;99.90
11656;DHT22;5884;43.618;1.438;2023-03-14T14:44:50;11.40;99.90
11656;DHT22;5884;43.618;1.438;2023-03-14T14:47:20;11.70;99.90
11656;DHT22;5884;43.618;1.438;2023-03-14T14:49:51;11.80;99.90
11656;DHT22;5884;43.618;1.438;2023-03-14T14:52:21;11.80;99.90
11656;DHT22;5884;43.618;1.438;2023-03-14T14:54:54;11.70;99.90
11656;DHT22;5884;43.618;1.438;2023-03-14T14:57:27;11.50;99.90
11656;DHT22;5884;43.618;1.438;2023-03-14T15:00:00;11.10;99.90
11656;DHT22;5884;43.618;1.438;2023-03-14T15:02:33;10.80;99.90
11656;DHT22;5884;43.618;1.438;2023-03-14T15:05:08;10.60;99.90
11656;DHT22;5884;43.618;1.438;2023-03-14T15:07:39;10.60;99.90
11656;DHT22;5884;43.618;1.438;2023-03-14T15:10:10;10.60;99.90
11656;DHT22;5884;43.618;1.438;2023-03-14T15:12:38;10.80;99.90
11656;DHT22;5884;43.618;1.438;2023-03-14T15:15:06;10.90;99.90
11656;DHT22;5884;43.618;1.438;2023-03-14T15:17:34;11.00;99.90
11656;DHT22;5884;43.618;1.438;2023-03-14T15:20:02;11.20;99.90
11656;DHT22;5884;43.618;1.438;2023-03-14T15:22:30;11.30;99.90
11656;DHT22;5884;43.618;1.438;2023-03-14T15:24:58;11.50;99.90
11656;DHT22;5884;43.618;1.438;2023-03-14T15:27:28;11.70;99.90
11656;DHT22;5884;43.618;1.438;2023-03-14T15:29:57;11.50;99.90
11656;DHT22;5884;43.618;1.438;2023-03-14T15:32:25;11.30;99.90
11656;DHT22;5884;43.618;1.438;2023-03-14T15:34:53;11.20;99.90
11656;DHT22;5884;43.618;1.438;2023-03-14T15:37:21;11.30;99.90
11656;DHT22;5884;43.618;1.438;2023-03-14T15:39:48;11.10;99.90
11656;DHT22;5884;43.618;1.438;2023-03-14T15:42:16;11.10;99.90
11656;DHT22;5884;43.618;1.438;2023-03-14T15:44:44;11.10;99.90
11656;DHT22;5884;43.618;1.438;2023-03-14T15:47:12;11.10;99.90
11656;DHT22;5884;43.618;1.438;2023-03-14T15:49:39;10.90;99.90
11656;DHT22;5884;43.618;1.438;2023-03-14T15:52:07;11.00;99.90
11656;DHT22;5884;43.618;1.438;2023-03-14T15:54:35;11.20;99.90
11656;DHT22;5884;43.618;1.438;2023-03-14T15:57:02;11.40;99.90
11656;DHT22;5884;43.618;1.438;2023-03-14T15:59:32;11.40;99.90
11656;DHT22;5884;43.618;1.438;2023-03-14T16:02:00;11.50;99.90
11656;DHT22;5884;43.618;1.438;2023-03-14T16:04:28;11.70;99.90
11656;DHT22;5884;43.618;1.438;2023-03-14T16:06:55;11.70;99.90
11656;DHT22;5884;43.618;1.438;2023-03-14T16:09:22;11.70;99.90
11656;DHT22;5884;43.618;1.438;2023-03-14T16:11:50;11.60;99.90
11656;DHT22;5884;43.618;1.438;2023-03-14T16:14:17;11.50;99.90
11656;DHT22;5884;43.618;1.438;2023-03-14T16:16:45;11.50;99.90
11656;DHT22;5884;43.618;1.438;2023-03-14T16:19:13;11.40;99.90
11656;DHT22;5884;43.618;1.438;2023-03-14T16:21:41;11.40;99.90
11656;DHT22;5884;43.618;1.438;2023-03-14T16:24:08;11.50;99.90
11656;DHT22;5884;43.618;1.438;2023-03-14T16:26:35;11.60;99.90
11656;DHT22;5884;43.618;1.438;2023-03-14T16:29:03;11.60;99.90
11656;DHT22;5884;43.618;1.438;2023-03-14T16:31:30;11.60;99.90
11656;DHT22;5884;43.618;1.438;2023-03-14T16:34:00;11.60;99.90
11656;DHT22;5884;43.618;1.438;2023-03-14T16:36:30;11.60;99.90
11656;DHT22;5884;43.618;1.438;2023-03-14T16:38:58;11.60;99.90
11656;DHT22;5884;43.618;1.438;2023-03-14T16:41:25;11.80;99.90
11656;DHT22;5884;43.618;1.438;2023-03-14T16:43:55;11.90;99.90
11656;DHT22;5884;43.618;1.438;2023-03-14T16:46:23;11.80;99.90
11656;DHT22;5884;43.618;1.438;2023-03-14T16:48:51;11.80;99.90
11656;DHT22;5884;43.618;1.438;2023-03-14T16:51:19;11.60;99.90
11656;DHT22;5884;43.618;1.438;2023-03-14T16:53:48;11.50;99.90
11656;DHT22;5884;43.618;1.438;2023-03-14T16:56:16;11.30;99.90
11656;DHT22;5884;43.618;1.438;2023-03-14T16:58:43;11.30;99.90
11656;DHT22;5884;43.618;1.438;2023-03-14T17:01:12;11.20;99.90
11656;DHT22;5884;43.618;1.438;2023-03-14T17:03:43;11.20;99.90
11656;DHT22;5884;43.618;1.438;2023-03-14T17:06:12;11.20;99.90
11656;DHT22;5884;43.618;1.438;2023-03-14T17:08:40;11.20;99.90
11656;DHT22;5884;43.618;1.438;2023-03-14T17:11:10;11.10;99.90
11656;DHT22;5884;43.618;1.438;2023-03-14T17:13:37;11.10;99.90
11656;DHT22;5884;43.618;1.438;2023-03-14T17:16:05;11.10;99.90
11656;DHT22;5884;43.618;1.438;2023-03-14T17:18:34;11.10;99.90
11656;DHT22;5884;43.618;1.438;2023-03-14T17:21:02;11.00;99.90
11656;DHT22;5884;43.618;1.438;2023-03-14T17:23:31;11.00;99.90
11656;DHT22;5884;43.618;1.438;2023-03-14T17:25:59;10.90;99.90
11656;DHT22;5884;43.618;1.438;2023-03-14T17:28:28;10.90;99.90
11656;DHT22;5884;43.618;1.438;2023-03-14T17:31:03;10.90;99.90
11656;DHT22;5884;43.618;1.438;2023-03-14T17:33:32;10.90;99.90
11656;DHT22;5884;43.618;1.438;2023-03-14T17:36:00;11.00;99.90
11656;DHT22;5884;43.618;1.438;2023-03-14T17:38:27;11.00;99.90
11656;DHT22;5884;43.618;1.438;2023-03-14T17:40:55;11.00;99.90
11656;DHT22;5884;43.618;1.438;2023-03-14T17:43:23;10.90;99.90
11656;DHT22;5884;43.618;1.438;2023-03-14T17:45:57;10.80;99.90
11656;DHT22;5884;43.618;1.438;2023-03-14T17:48:25;10.80;99.90
11656;DHT22;5884;43.618;1.438;2023-03-14T17:50:52;10.80;99.90
11656;DHT22;5884;43.618;1.438;2023-03-14T17:53:21;10.70;99.90
11656;DHT22;5884;43.618;1.438;2023-03-14T17:55:49;10.80;99.90
11656;DHT22;5884;43.618;1.438;2023-03-14T17:58:16;10.80;99.90
11656;DHT22;5884;43.618;1.438;2023-03-14T18:00:43;10.70;99.90
11656;DHT22;5884;43.618;1.438;2023-03-14T18:03:12;10.80;99.90
11656;DHT22;5884;43.618;1.438;2023-03-14T18:05:40;10.90;99.90
11656;DHT22;5884;43.618;1.438;2023-03-14T18:08:11;10.80;99.90
11656;DHT22;5884;43.618;1.438;2023-03-14T18:10:39;10.80;99.90
11656;DHT22;5884;43.618;1.438;2023-03-14T18:13:07;10.70;99.90
11656;DHT22;5884;43.618;1.438;2023-03-14T18:15:34;10.60;99.90
11656;DHT22;5884;43.618;1.438;2023-03-14T18:18:02;10.50;99.90
11656;DHT22;5884;43.618;1.438;2023-03-14T18:20:30;10.50;99.90
11656;DHT22;5884;43.618;1.438;2023-03-14T18:22:58;10.50;99.90
11656;DHT22;5884;43.618;1.438;2023-03-14T18:25:26;10.40;99.90
11656;DHT22;5884;43.618;1.438;2023-03-14T18:27:53;10.40;99.90
11656;DHT22;5884;43.618;1.438;2023-03-14T18:30:21;10.30;99.90
11656;DHT22;5884;43.618;1.438;2023-03-14T18:32:48;10.30;99.90
11656;DHT22;5884;43.618;1.438;2023-03-14T18:35:15;10.30;99.90
11656;DHT22;5884;43.618;1.438;2023-03-14T18:37:44;10.40;99.90
11656;DHT22;5884;43.618;1.438;2023-03-14T18:40:12;10.40;99.90
11656;DHT22;5884;43.618;1.438;2023-03-14T18:42:42;10.40;99.90
11656;DHT22;5884;43.618;1.438;2023-03-14T18:45:09;10.40;99.90
11656;DHT22;5884;43.618;1.438;2023-03-14T18:47:37;10.50;99.90
11656;DHT22;5884;43.618;1.438;2023-03-14T18:50:06;10.50;99.90
11656;DHT22;5884;43.618;1.438;2023-03-14T18:52:34;10.40;99.90
11656;DHT22;5884;43.618;1.438;2023-03-14T18:55:03;10.40;99.90
11656;DHT22;5884;43.618;1.438;2023-03-14T18:57:31;10.40;99.90
11656;DHT22;5884;43.618;1.438;2023-03-14T18:59:58;10.40;99.90
11656;DHT22;5884;43.618;1.438;2023-03-14T19:02:25;10.40;99.90
11656;DHT22;5884;43.618;1.438;2023-03-14T19:04:53;10.40;99.90
11656;DHT22;5884;43.618;1.438;2023-03-14T19:07:20;10.40;99.90
11656;DHT22;5884;43.618;1.438;2023-03-14T19:09:48;10.30;99.90
11656;DHT22;5884;43.618;1.438;2023-03-14T19:12:16;10.30;99.90
11656;DHT22;5884;43.618;1.438;2023-03-14T19:14:44;10.30;99.90
11656;DHT22;5884;43.618;1.438;2023-03-14T19:17:11;10.30;99.90
11656;DHT22;5884;43.618;1.438;2023-03-14T19:19:38;10.30;99.90
11656;DHT22;5884;43.618;1.438;2023-03-14T19:22:06;10.30;99.90
11656;DHT22;5884;43.618;1.438;2023-03-14T19:24:33;10.30;99.90
11656;DHT22;5884;43.618;1.438;2023-03-14T19:27:00;10.30;99.90
11656;DHT22;5884;43.618;1.438;2023-03-14T19:29:29;10.30;99.90
11656;DHT22;5884;43.618;1.438;2023-03-14T19:31:59;10.30;99.90
11656;DHT22;5884;43.618;1.438;2023-03-14T19:34:27;10.30;99.90
11656;DHT22;5884;43.618;1.438;2023-03-14T19:36:54;10.30;99.90
11656;DHT22;5884;43.618;1.438;2023-03-14T19:39:21;10.20;99.90
11656;DHT22;5884;43.618;1.438;2023-03-14T19:41:49;10.20;99.90
11656;DHT22;5884;43.618;1.438;2023-03-14T19:44:22;10.20;99.90
11656;DHT22;5884;43.618;1.438;2023-03-14T19:46:51;10.20;99.90
11656;DHT22;5884;43.618;1.438;2023-03-14T19:49:20;10.20;99.90
11656;DHT22;5884;43.618;1.438;2023-03-14T19:51:47;10.20;99.90
11656;DHT22;5884;43.618;1.438;2023-03-14T19:54:15;10.30;99.90
11656;DHT22;5884;43.618;1.438;2023-03-14T19:56:42;10.20;99.90
11656;DHT22;5884;43.618;1.438;2023-03-14T19:59:10;10.20;99.90
11656;DHT22;5884;43.618;1.438;2023-03-14T20:01:38;10.20;99.90
11656;DHT22;5884;43.618;1.438;2023-03-14T20:04:07;10.20;99.90
11656;DHT22;5884;43.618;1.438;2023-03-14T20:06:35;10.20;99.90
11656;DHT22;5884;43.618;1.438;2023-03-14T20:09:02;10.20;99.90
11656;DHT22;5884;43.618;1.438;2023-03-14T20:11:30;10.30;99.90
11656;DHT22;5884;43.618;1.438;2023-03-14T20:13:58;10.30;99.90
11656;DHT22;5884;43.618;1.438;2023-03-14T20:16:25;10.30;99.90
11656;DHT22;5884;43.618;1.438;2023-03-14T20:18:53;10.30;99.90
11656;DHT22;5884;43.618;1.438;2023-03-14T20:21:21;10.30;99.90
11656;DHT22;5884;43.618;1.438;2023-03-14T20:23:49;10.30;99.90
11656;DHT22;5884;43.618;1.438;2023-03-14T20:26:16;10.30;99.90
11656;DHT22;5884;43.618;1.438;2023-03-14T20:28:43;10.30;99.90
11656;DHT22;5884;43.618;1.438;2023-03-14T20:31:11;10.30;99.90
11656;DHT22;5884;43.618;1.438;2023-03-14T20:33:39;10.30;99.90
11656;DHT22;5884;43.618;1.438;2023-03-14T20:36:07;10.20;99.90
11656;DHT22;5884;43.618;1.438;2023-03-14T20:38:36;10.30;99.90
11656;DHT22;5884;43.618;1.438;2023-03-14T20:41:04;10.20;99.90
11656;DHT22;5884;43.618;1.438;2023-03-14T20:43:32;10.20;99.90
11656;DHT22;5884;43.618;1.438;2023-03-14T20:46:00;10.10;99.90
11656;DHT22;5884;43.618;1.438;2023-03-14T20:48:29;10.10;99.90
11656;DHT22;5884;43.618;1.438;2023-03-14T20:50:58;10.10;99.90
11656;DHT22;5884;43.618;1.438;2023-03-14T20:53:26;10.10;99.90
11656;DHT22;5884;43.618;1.438;2023-03-14T20:55:56;10.00;99.90
11656;DHT22;5884;43.618;1.438;2023-03-14T20:58:24;10.00;99.90
11656;DHT22;5884;43.618;1.438;2023-03-14T21:00:54;10.00;99.90
11656;DHT22;5884;43.618;1.438;2023-03-14T21:03:23;10.00;99.90
11656;DHT22;5884;43.618;1.438;2023-03-14T21:05:51;10.00;99.90
11656;DHT22;5884;43.618;1.438;2023-03-14T21:08:20;10.00;99.90
11656;DHT22;5884;43.618;1.438;2023-03-14T21:10:49;10.00;99.90
11656;DHT22;5884;43.618;1.438;2023-03-14T21:13:19;10.00;99.90
11656;DHT22;5884;43.618;1.438;2023-03-14T21:15:46;10.00;99.90
11656;DHT22;5884;43.618;1.438;2023-03-14T21:18:14;10.00;99.90
11656;DHT22;5884;43.618;1.438;2023-03-14T21:20:42;10.00;99.90
11656;DHT22;5884;43.618;1.438;2023-03-14T21:23:10;10.00;99.90
11656;DHT22;5884;43.618;1.438;2023-03-14T21:25:39;10.00;99.90
11656;DHT22;5884;43.618;1.438;2023-03-14T21:28:07;9.90;99.90
11656;DHT22;5884;43.618;1.438;2023-03-14T21:30:36;9.90;99.90
11656;DHT22;5884;43.618;1.438;2023-03-14T21:33:03;9.90;99.90
11656;DHT22;5884;43.618;1.438;2023-03-14T21:35:31;9.90;99.90
11656;DHT22;5884;43.618;1.438;2023-03-14T21:37:58;10.00;99.90
11656;DHT22;5884;43.618;1.438;2023-03-14T21:40:25;9.90;99.90
11656;DHT22;5884;43.618;1.438;2023-03-14T21:42:53;9.90;99.90
11656;DHT22;5884;43.618;1.438;2023-03-14T21:45:21;9.90;99.90
11656;DHT22;5884;43.618;1.438;2023-03-14T21:47:51;10.00;99.90
11656;DHT22;5884;43.618;1.438;2023-03-14T21:50:19;9.90;99.90
11656;DHT22;5884;43.618;1.438;2023-03-14T21:52:48;9.90;99.90
11656;DHT22;5884;43.618;1.438;2023-03-14T21:55:16;9.90;99.90